Time;durP1;ratioP1;P1;durP2;ratioP2;P2;SDS_P1;SDS_P2;PMS_P1;PMS_P2;Temp;Humidity;BMP_temperature;BMP_pressure;BME280_temperature;BME280_humidity;BME280_pressure;Samples;Min_cycle;Max_cycle;Signal;HPM_P1;HPM_P2
2022/11/20 00:01:24;;;;;;;21.98;14.23;;;-2.00;99.90;;;;;;5086474;28;20492;-61
2022/11/20 00:04:16;;;;;;;23.33;15.23;;;-1.90;99.90;;;;;;5073785;28;20107;-64
2022/11/20 00:07:02;;;;;;;23.40;15.35;;;-2.00;99.90;;;;;;5077313;28;20133;-57
2022/11/20 00:09:48;;;;;;;23.92;14.70;;;-2.00;99.90;;;;;;5090740;28;20052;-54
2022/11/20 00:12:34;;;;;;;24.15;15.30;;;-2.00;99.90;;;;;;5090451;28;20492;-56
2022/11/20 00:15:20;;;;;;;24.02;15.23;;;-1.90;99.90;;;;;;5062661;28;20036;-58
2022/11/20 00:18:05;;;;;;;22.15;14.80;;;-1.80;99.90;;;;;;5094680;28;20052;-58
2022/11/20 00:20:51;;;;;;;23.35;14.85;;;-1.80;99.90;;;;;;5094171;28;20535;-59
2022/11/20 00:23:38;;;;;;;23.20;15.25;;;-2.00;99.90;;;;;;5079356;28;20028;-61
2022/11/20 00:26:26;;;;;;;24.00;15.07;;;-2.00;99.90;;;;;;5080830;28;20055;-59
2022/11/20 00:29:12;;;;;;;23.83;15.23;;;-2.00;99.90;;;;;;5086580;28;20063;-58
2022/11/20 00:31:58;;;;;;;23.23;15.05;;;-2.10;99.90;;;;;;5088890;28;20104;-58
2022/11/20 00:34:44;;;;;;;22.25;14.82;;;-2.10;99.90;;;;;;5085269;28;20028;-66
2022/11/20 00:37:30;;;;;;;25.58;15.93;;;-2.10;99.90;;;;;;5093731;28;20165;-66
2022/11/20 00:40:16;;;;;;;23.00;14.57;;;-2.10;99.90;;;;;;5065584;28;20067;-67
2022/11/20 00:43:02;;;;;;;27.67;16.27;;;-2.00;99.90;;;;;;5065758;28;20062;-56
2022/11/20 00:45:48;;;;;;;24.30;15.38;;;-2.10;99.90;;;;;;5077997;28;20455;-61
2022/11/20 00:48:34;;;;;;;24.45;15.25;;;-2.20;99.90;;;;;;5061225;28;20050;-60
2022/11/20 00:51:22;;;;;;;24.17;15.60;;;-2.20;99.90;;;;;;5082236;28;20419;-62
2022/11/20 00:54:11;;;;;;;24.17;15.45;;;-2.10;99.90;;;;;;5076110;28;20485;-64
2022/11/20 00:56:57;;;;;;;27.15;15.65;;;-2.00;99.90;;;;;;5065250;28;20032;-62
2022/11/20 00:59:43;;;;;;;24.15;15.02;;;-2.00;99.90;;;;;;5066336;28;20054;-63
2022/11/20 01:02:29;;;;;;;26.45;15.88;;;-1.90;99.90;;;;;;5091826;28;20051;-59
2022/11/20 01:05:15;;;;;;;25.02;17.05;;;-1.60;99.90;;;;;;5088438;28;20028;-65
2022/11/20 01:08:00;;;;;;;25.52;16.33;;;-1.30;99.90;;;;;;5100130;28;20016;-61
2022/11/20 01:10:46;;;;;;;24.55;15.10;;;-1.30;99.90;;;;;;5093083;28;20062;-62
2022/11/20 01:13:39;;;;;;;23.67;16.00;;;-1.50;99.90;;;;;;5072831;28;20119;-62
2022/11/20 01:16:31;;;;;;;24.55;15.15;;;-1.60;99.90;;;;;;5067563;28;20035;-58
2022/11/20 01:19:21;;;;;;;23.33;15.45;;;-1.70;99.90;;;;;;5094035;28;20012;-59
2022/11/20 01:22:07;;;;;;;23.42;14.88;;;-1.80;99.90;;;;;;5093748;28;20012;-61
2022/11/20 01:24:53;;;;;;;24.42;14.52;;;-2.00;99.90;;;;;;5092678;28;20024;-60
2022/11/20 01:27:38;;;;;;;23.75;16.00;;;-2.00;99.90;;;;;;5076276;28;20036;-59
2022/11/20 01:30:24;;;;;;;22.83;14.23;;;-2.10;99.90;;;;;;5077062;28;20077;-59
2022/11/20 01:33:10;;;;;;;23.63;14.32;;;-2.10;99.90;;;;;;5066426;28;20089;-58
2022/11/20 01:36:05;;;;;;;23.25;14.60;;;-2.20;99.90;;;;;;5078003;28;20024;-58
2022/11/20 01:38:53;;;;;;;24.23;15.27;;;-2.20;99.90;;;;;;5091427;28;20117;-60
2022/11/20 01:44:52;;;;;;;20.98;14.18;;;-2.20;99.90;;;;;;5089548;28;20488;-60
2022/11/20 01:47:45;;;;;;;24.90;16.52;;;-2.20;99.90;;;;;;5093111;28;20028;-60
2022/11/20 01:50:33;;;;;;;23.60;15.90;;;-2.00;99.90;;;;;;5092032;28;20039;-60
2022/11/20 01:53:25;;;;;;;24.52;15.48;;;-2.10;99.90;;;;;;5092762;28;20036;-59
2022/11/20 01:56:13;;;;;;;25.30;15.50;;;-2.10;99.90;;;;;;5077946;28;20076;-58
2022/11/20 01:59:03;;;;;;;25.63;15.27;;;-2.10;99.90;;;;;;5092480;28;20085;-56
2022/11/20 02:01:49;;;;;;;25.38;15.95;;;-2.10;99.90;;;;;;5092292;28;20028;-56
2022/11/20 02:04:36;;;;;;;26.42;16.10;;;-2.10;99.90;;;;;;5091878;28;20069;-58
2022/11/20 02:07:23;;;;;;;23.52;16.00;;;-2.20;99.90;;;;;;5091881;28;20488;-57
2022/11/20 02:10:09;;;;;;;25.02;16.15;;;-2.20;99.90;;;;;;5091935;28;20032;-58
2022/11/20 02:16:00;;;;;;;26.00;15.82;;;-2.30;99.90;;;;;;5092128;28;20028;-57
2022/11/20 02:18:47;;;;;;;25.40;16.60;;;-2.40;99.90;;;;;;5091962;28;20021;-59
2022/11/20 02:22:06;;;;;;;25.65;15.63;;;-2.40;99.90;;;;;;5077080;28;20500;-59
2022/11/20 02:24:52;;;;;;;27.58;15.13;;;-2.30;99.90;;;;;;5076436;28;20062;-56
2022/11/20 02:27:38;;;;;;;24.15;16.02;;;-2.30;99.90;;;;;;5091440;28;20121;-56
2022/11/20 02:30:24;;;;;;;24.90;16.50;;;-2.30;99.90;;;;;;5091240;28;20074;-57
2022/11/20 02:33:10;;;;;;;23.77;15.55;;;-2.30;99.90;;;;;;5091550;28;20028;-58
2022/11/20 02:35:56;;;;;;;26.55;16.15;;;-2.30;99.90;;;;;;5091404;28;20032;-59
2022/11/20 02:38:42;;;;;;;25.85;16.15;;;-2.30;99.90;;;;;;5091128;28;20047;-60
2022/11/20 02:41:36;;;;;;;22.70;15.25;;;-2.30;99.90;;;;;;5090857;28;20028;-60
2022/11/20 02:44:22;;;;;;;24.02;15.98;;;-2.20;99.90;;;;;;5091123;28;20058;-59
2022/11/20 02:47:09;;;;;;;25.92;16.60;;;-2.20;99.90;;;;;;5090974;28;20064;-58
2022/11/20 02:49:55;;;;;;;23.10;15.18;;;-2.30;99.90;;;;;;5091190;28;20048;-57
2022/11/20 02:52:41;;;;;;;21.42;14.38;;;-2.20;99.90;;;;;;5075652;28;20042;-60
2022/11/20 02:55:27;;;;;;;26.38;16.27;;;-2.20;99.90;;;;;;5075920;28;20031;-56
2022/11/20 02:58:13;;;;;;;28.50;15.93;;;-2.20;99.90;;;;;;5091580;28;20035;-60
2022/11/20 03:00:59;;;;;;;24.15;15.70;;;-2.20;99.90;;;;;;5090864;28;20108;-57
2022/11/20 03:03:45;;;;;;;25.20;15.88;;;-2.20;99.90;;;;;;5090650;28;20024;-57
2022/11/20 03:06:31;;;;;;;26.48;15.35;;;-2.20;99.90;;;;;;5090794;28;20028;-56
2022/11/20 03:09:17;;;;;;;24.88;15.73;;;-2.20;99.90;;;;;;5091989;28;20081;-58
2022/11/20 03:12:03;;;;;;;25.63;16.38;;;-2.20;99.90;;;;;;5090408;28;20032;-54
2022/11/20 03:14:49;;;;;;;25.42;15.68;;;-2.20;99.90;;;;;;5091276;28;20035;-55
2022/11/20 03:17:35;;;;;;;26.85;16.58;;;-2.30;99.90;;;;;;5076274;28;20460;-58
2022/11/20 03:20:22;;;;;;;26.85;16.30;;;-2.30;99.90;;;;;;5091453;28;20024;-57
2022/11/20 03:23:08;;;;;;;25.88;16.15;;;-2.20;99.90;;;;;;5075267;28;20036;-58
2022/11/20 03:25:54;;;;;;;23.70;15.65;;;-2.40;99.90;;;;;;5090600;28;20034;-57
2022/11/20 03:28:40;;;;;;;27.33;16.60;;;-2.30;99.90;;;;;;5090450;28;20032;-56
2022/11/20 03:31:40;;;;;;;25.90;15.82;;;-2.40;99.90;;;;;;5090487;28;20039;-58
2022/11/20 03:34:26;;;;;;;26.77;16.65;;;-2.40;99.90;;;;;;5090368;28;20476;-59
2022/11/20 03:37:12;;;;;;;26.50;16.20;;;-2.40;99.90;;;;;;5090812;28;20438;-56
2022/11/20 03:39:57;;;;;;;26.25;15.73;;;-2.40;99.90;;;;;;5090312;28;20024;-56
2022/11/20 03:42:46;;;;;;;27.67;15.95;;;-2.40;99.90;;;;;;5090386;28;20029;-61
2022/11/20 03:45:35;;;;;;;25.80;16.02;;;-2.40;99.90;;;;;;5076756;28;20039;-58
2022/11/20 03:48:21;;;;;;;24.33;15.85;;;-2.40;99.90;;;;;;5090409;28;20111;-58
2022/11/20 03:51:32;;;;;;;26.48;16.33;;;-2.50;99.90;;;;;;5075670;28;20020;-56
2022/11/20 03:54:18;;;;;;;23.85;15.57;;;-2.40;99.90;;;;;;5094538;28;20492;-57
2022/11/20 03:57:04;;;;;;;28.20;16.25;;;-2.40;99.90;;;;;;5079291;28;20028;-58
2022/11/20 03:59:50;;;;;;;26.08;16.35;;;-2.40;99.90;;;;;;5094344;28;20476;-57
2022/11/20 04:02:36;;;;;;;27.83;16.15;;;-2.40;99.90;;;;;;5079788;28;20028;-56
2022/11/20 04:05:21;;;;;;;26.48;16.80;;;-2.50;99.90;;;;;;5079633;28;20024;-54
2022/11/20 04:08:07;;;;;;;31.58;17.70;;;-2.50;99.90;;;;;;5094868;28;20063;-58
2022/11/20 04:10:53;;;;;;;29.13;16.45;;;-2.50;99.90;;;;;;5093771;28;20030;-59
2022/11/20 04:13:40;;;;;;;28.55;16.77;;;-2.50;99.90;;;;;;5094705;28;20024;-55
2022/11/20 04:16:30;;;;;;;28.05;16.05;;;-2.50;99.90;;;;;;5093831;28;20496;-57
2022/11/20 04:19:16;;;;;;;26.83;16.48;;;-2.40;99.90;;;;;;5094016;28;20024;-58
2022/11/20 04:22:02;;;;;;;26.75;16.50;;;-2.40;99.90;;;;;;5093854;28;20024;-57
2022/11/20 04:24:48;;;;;;;24.63;16.58;;;-2.40;99.90;;;;;;5094215;28;20032;-56
2022/11/20 04:27:34;;;;;;;25.38;16.13;;;-2.50;99.90;;;;;;5094463;28;20032;-57
2022/11/20 04:30:20;;;;;;;26.98;16.40;;;-2.50;99.90;;;;;;5093479;28;20443;-59
2022/11/20 04:33:06;;;;;;;27.38;17.08;;;-2.50;99.90;;;;;;5093701;28;20545;-58
2022/11/20 04:35:51;;;;;;;26.40;16.25;;;-2.40;99.90;;;;;;5078395;28;20024;-57
2022/11/20 04:38:38;;;;;;;27.75;16.63;;;-2.50;99.90;;;;;;5093690;28;20108;-58
2022/11/20 04:41:30;;;;;;;29.70;19.38;;;-2.50;99.90;;;;;;5093404;28;20442;-54
2022/11/20 04:44:16;;;;;;;38.63;20.25;;;-2.40;99.90;;;;;;5094524;28;20047;-58
2022/11/20 04:47:02;;;;;;;29.45;19.25;;;-2.40;99.90;;;;;;5065327;28;20052;-57
2022/11/20 04:49:48;;;;;;;29.52;17.77;;;-2.40;99.90;;;;;;5093466;28;20106;-57
2022/11/20 04:52:33;;;;;;;28.77;18.27;;;-2.40;99.90;;;;;;5093111;28;20036;-59
2022/11/20 04:55:19;;;;;;;30.23;18.33;;;-2.60;99.90;;;;;;5093179;28;20035;-57
2022/11/20 04:58:05;;;;;;;30.98;18.42;;;-2.70;99.90;;;;;;5093148;28;20059;-60
2022/11/20 05:00:51;;;;;;;28.80;17.58;;;-2.70;99.90;;;;;;5092886;28;20051;-57
2022/11/20 05:03:38;;;;;;;29.23;18.15;;;-2.70;99.90;;;;;;5078913;28;20404;-59
2022/11/20 05:06:24;;;;;;;30.88;18.02;;;-2.60;99.90;;;;;;5092980;28;20139;-57
2022/11/20 05:09:10;;;;;;;32.42;19.15;;;-2.80;99.90;;;;;;5093058;28;20054;-61
2022/11/20 05:11:56;;;;;;;30.90;18.17;;;-2.90;99.90;;;;;;5092822;28;20103;-59
2022/11/20 05:14:42;;;;;;;27.30;17.13;;;-3.00;99.90;;;;;;5079257;28;20081;-59
2022/11/20 05:17:28;;;;;;;42.45;23.95;;;-2.90;99.90;;;;;;5077879;28;20549;-59
2022/11/20 05:20:14;;;;;;;31.55;19.40;;;-3.00;99.90;;;;;;5092650;28;20028;-59
2022/11/20 05:23:00;;;;;;;30.77;18.35;;;-3.00;99.90;;;;;;5092975;28;20031;-58
2022/11/20 05:25:46;;;;;;;30.48;18.02;;;-3.00;99.90;;;;;;5092827;28;20027;-59
2022/11/20 05:28:33;;;;;;;31.83;18.15;;;-3.10;99.90;;;;;;5092710;28;20097;-57
2022/11/20 05:31:21;;;;;;;31.42;18.73;;;-3.10;99.90;;;;;;5092340;28;20031;-57
2022/11/20 05:34:08;;;;;;;32.90;19.20;;;-3.20;99.90;;;;;;5093737;28;20024;-59
2022/11/20 05:36:54;;;;;;;31.42;17.08;;;-3.10;99.90;;;;;;5078733;28;20024;-59
2022/11/20 05:39:39;;;;;;;28.50;18.10;;;-3.20;99.90;;;;;;5077997;28;20052;-59
2022/11/20 05:42:31;;;;;;;33.08;19.02;;;-3.10;99.90;;;;;;5078359;28;20016;-59
2022/11/20 05:45:17;;;;;;;31.48;18.92;;;-3.10;99.90;;;;;;5077383;28;20483;-60
2022/11/20 05:48:03;;;;;;;28.17;18.02;;;-3.20;99.90;;;;;;5092489;28;20415;-59
2022/11/20 05:50:49;;;;;;;33.10;18.98;;;-3.30;99.90;;;;;;5092178;28;20443;-60
2022/11/20 05:53:36;;;;;;;33.70;20.35;;;-3.30;99.90;;;;;;5092755;28;20043;-60
2022/11/20 05:56:22;;;;;;;34.00;18.88;;;-3.30;99.90;;;;;;5092139;28;20035;-57
2022/11/20 05:59:08;;;;;;;32.00;18.58;;;-3.30;99.90;;;;;;5092226;28;20404;-61
2022/11/20 06:01:54;;;;;;;32.90;19.40;;;-3.20;99.90;;;;;;5091898;28;20552;-58
2022/11/20 06:04:40;;;;;;;33.22;19.67;;;-3.20;99.90;;;;;;5092198;28;20514;-59
2022/11/20 06:07:26;;;;;;;33.40;20.02;;;-3.20;99.90;;;;;;5076915;28;20450;-60
2022/11/20 06:10:12;;;;;;;35.00;20.85;;;-3.20;99.90;;;;;;5091734;28;20035;-60
2022/11/20 06:12:58;;;;;;;33.28;19.80;;;-3.30;99.90;;;;;;5091850;28;20054;-60
2022/11/20 06:15:52;;;;;;;34.63;19.20;;;-3.20;99.90;;;;;;5091231;28;20111;-58
2022/11/20 06:18:38;;;;;;;34.30;20.83;;;-3.20;99.90;;;;;;5092339;28;20020;-58
2022/11/20 06:21:24;;;;;;;39.08;21.00;;;-3.30;99.90;;;;;;5076400;28;20074;-59
2022/11/20 06:24:10;;;;;;;36.10;21.48;;;-3.30;99.90;;;;;;5092466;28;20024;-58
2022/11/20 06:26:56;;;;;;;33.03;20.92;;;-3.30;99.90;;;;;;5091572;28;20031;-62
2022/11/20 06:29:42;;;;;;;38.25;22.50;;;-3.30;99.90;;;;;;5091692;28;20024;-60
2022/11/20 06:32:28;;;;;;;38.35;20.92;;;-3.40;99.90;;;;;;5069688;28;20036;-60
2022/11/20 06:35:14;;;;;;;36.47;21.52;;;-3.40;99.90;;;;;;5098732;28;20036;-60
2022/11/20 06:38:00;;;;;;;37.45;20.75;;;-3.40;99.90;;;;;;5078059;28;20040;-59
2022/11/20 06:40:46;;;;;;;36.42;20.15;;;-3.40;99.90;;;;;;5080977;28;20107;-61
2022/11/20 06:43:32;;;;;;;35.15;19.58;;;-3.40;99.90;;;;;;5084958;28;20021;-57
2022/11/20 06:46:19;;;;;;;34.42;20.35;;;-3.50;99.90;;;;;;5092820;28;20173;-60
2022/11/20 06:49:05;;;;;;;37.13;20.80;;;-3.50;99.90;;;;;;5066594;28;20043;-60
2022/11/20 06:51:51;;;;;;;41.08;21.23;;;-3.70;99.90;;;;;;5087075;28;20039;-58
2022/11/20 06:54:37;;;;;;;36.80;21.45;;;-3.70;99.90;;;;;;5072033;28;20032;-59
2022/11/20 06:57:23;;;;;;;31.45;19.67;;;-3.70;99.90;;;;;;5056926;28;20158;-59
2022/11/20 07:00:10;;;;;;;37.30;20.70;;;-3.70;99.90;;;;;;5071474;28;20372;-58
2022/11/20 07:02:56;;;;;;;32.42;18.85;;;-3.60;99.90;;;;;;5071347;28;20504;-59
2022/11/20 07:05:41;;;;;;;35.78;20.63;;;-3.60;99.90;;;;;;5071609;28;20029;-59
2022/11/20 07:08:28;;;;;;;36.63;21.45;;;-3.60;99.90;;;;;;5056847;28;20020;-58
2022/11/20 07:11:14;;;;;;;31.00;17.77;;;-3.70;99.90;;;;;;5057759;28;20078;-60
2022/11/20 07:14:00;;;;;;;38.10;19.58;;;-3.70;99.90;;;;;;5071679;28;20020;-58
2022/11/20 07:16:46;;;;;;;39.03;20.20;;;-3.80;99.90;;;;;;5071350;28;20064;-58
2022/11/20 07:19:32;;;;;;;33.08;18.88;;;-3.70;99.90;;;;;;5082906;28;20035;-57
2022/11/20 07:22:18;;;;;;;34.08;18.23;;;-3.80;99.90;;;;;;5090676;28;20025;-58
2022/11/20 07:25:04;;;;;;;33.03;19.45;;;-3.80;99.90;;;;;;5090950;28;20061;-58
2022/11/20 07:27:50;;;;;;;33.75;19.60;;;-3.90;99.90;;;;;;5074888;28;20031;-59
2022/11/20 07:30:37;;;;;;;33.13;19.60;;;-3.80;99.90;;;;;;5089947;28;20407;-58
2022/11/20 07:33:23;;;;;;;37.60;21.33;;;-3.80;99.90;;;;;;5049318;28;20110;-61
2022/11/20 07:36:09;;;;;;;36.78;20.02;;;-3.70;99.90;;;;;;5090603;28;20024;-61
2022/11/20 07:38:55;;;;;;;35.60;21.77;;;-3.60;99.90;;;;;;5075107;28;20380;-59
2022/11/20 07:41:41;;;;;;;36.10;20.80;;;-3.60;99.90;;;;;;5085208;28;20021;-61
2022/11/20 07:44:27;;;;;;;35.60;18.98;;;-3.60;99.90;;;;;;5077205;28;20024;-59
2022/11/20 07:47:13;;;;;;;35.00;20.98;;;-3.60;99.90;;;;;;5089919;28;20036;-57
2022/11/20 07:49:59;;;;;;;32.05;19.48;;;-3.50;99.90;;;;;;5090791;28;20028;-60
2022/11/20 07:52:45;;;;;;;36.40;20.13;;;-3.40;99.90;;;;;;5085006;28;20063;-54
2022/11/20 07:55:32;;;;;;;32.53;19.50;;;-3.30;99.90;;;;;;5095630;28;20034;-55
2022/11/20 07:58:19;;;;;;;31.60;19.75;;;-3.10;99.90;;;;;;5111644;28;20073;-60
2022/11/20 08:01:07;;;;;;;34.97;20.67;;;-3.10;99.90;;;;;;5095800;28;20046;-58
2022/11/20 08:03:52;;;;;;;34.13;20.75;;;-3.10;99.90;;;;;;5107651;28;20028;-58
2022/11/20 08:06:38;;;;;;;34.25;18.90;;;-3.10;99.90;;;;;;5084137;28;20485;-61
2022/11/20 08:09:24;;;;;;;32.58;18.40;;;-3.20;99.90;;;;;;5090437;28;20035;-61
2022/11/20 08:15:23;;;;;;;35.00;18.63;;;-3.00;99.90;;;;;;5089414;28;20519;-62
2022/11/20 08:18:11;;;;;;;34.22;19.77;;;-2.90;99.90;;;;;;5075677;28;20424;-57
2022/11/20 08:20:57;;;;;;;35.65;19.80;;;-2.90;99.90;;;;;;5075801;28;20021;-61
2022/11/20 08:23:46;;;;;;;32.42;20.63;;;-2.90;99.90;;;;;;5078416;28;20028;-60
2022/11/20 08:26:33;;;;;;;31.60;18.42;;;-2.80;99.90;;;;;;5091768;28;20038;-61
2022/11/20 08:29:19;;;;;;;34.38;19.48;;;-2.80;99.90;;;;;;5075856;28;20031;-59
2022/11/20 08:32:05;;;;;;;33.05;19.30;;;-2.80;99.90;;;;;;5076837;28;20039;-57
2022/11/20 08:34:59;;;;;;;31.83;19.23;;;-3.10;99.90;;;;;;5091587;28;20031;-61
2022/11/20 08:37:49;;;;;;;33.13;19.83;;;-3.00;99.90;;;;;;5093780;28;20033;-59
2022/11/20 08:40:35;;;;;;;31.88;19.73;;;-2.70;99.90;;;;;;5093910;28;20020;-59
2022/11/20 08:43:21;;;;;;;36.22;20.70;;;-2.60;99.90;;;;;;5079293;28;20021;-62
2022/11/20 08:46:06;;;;;;;32.47;19.52;;;-2.70;99.90;;;;;;5094106;28;20036;-58
2022/11/20 08:49:03;;;;;;;32.40;20.63;;;-2.70;99.90;;;;;;5083199;28;20220;-61
2022/11/20 08:51:53;;;;;;;35.78;19.27;;;-2.60;99.90;;;;;;5073408;28;20370;-61
2022/11/20 08:54:39;;;;;;;35.22;19.40;;;-2.50;99.90;;;;;;5092453;28;20091;-60
2022/11/20 08:57:25;;;;;;;35.05;19.23;;;-2.40;99.90;;;;;;5077650;28;20056;-61
2022/11/20 09:00:11;;;;;;;37.63;20.00;;;-2.30;99.90;;;;;;5093446;28;20024;-59
2022/11/20 09:02:58;;;;;;;36.65;19.83;;;-2.30;99.90;;;;;;5080408;28;20024;-59
2022/11/20 09:05:47;;;;;;;36.45;20.13;;;-2.40;99.90;;;;;;5080214;28;20032;-61
2022/11/20 09:08:35;;;;;;;37.25;20.95;;;-2.30;99.90;;;;;;5079218;28;20023;-58
2022/11/20 09:11:21;;;;;;;37.63;20.00;;;-2.30;99.90;;;;;;5093851;28;20404;-61
2022/11/20 09:14:07;;;;;;;36.50;20.13;;;-2.20;99.90;;;;;;5092790;28;20043;-61
2022/11/20 09:16:53;;;;;;;37.95;20.27;;;-2.30;99.90;;;;;;5093465;28;20101;-61
2022/11/20 09:19:40;;;;;;;40.13;21.20;;;-2.20;99.90;;;;;;5078523;28;20035;-59
2022/11/20 09:22:26;;;;;;;39.70;21.95;;;-2.00;99.90;;;;;;5093840;28;20052;-61
2022/11/20 09:25:12;;;;;;;37.35;19.98;;;-2.10;99.90;;;;;;5093344;28;20028;-61
2022/11/20 09:27:59;;;;;;;37.35;20.08;;;-2.00;99.90;;;;;;5080503;28;20107;-59
2022/11/20 09:30:45;;;;;;;38.25;20.15;;;-1.70;99.90;;;;;;5094456;28;20116;-59
2022/11/20 09:33:31;;;;;;;37.30;19.05;;;-1.60;99.90;;;;;;5093274;28;20027;-61
2022/11/20 09:36:18;;;;;;;31.20;18.65;;;-1.60;99.90;;;;;;5093092;28;20024;-61
2022/11/20 09:39:04;;;;;;;35.58;19.35;;;-1.40;99.90;;;;;;5093879;28;20514;-60
2022/11/20 09:42:44;;;;;;;35.25;18.83;;;-1.40;99.90;;;;;;5076915;28;20116;-59
2022/11/20 09:45:43;;;;;;;35.15;19.35;;;-1.30;99.90;;;;;;5010542;28;20037;-60
2022/11/20 09:49:06;;;;;;;33.05;19.00;;;-1.20;99.90;;;;;;5090348;28;20084;-60
2022/11/20 09:52:14;;;;;;;37.20;19.08;;;-1.10;99.90;;;;;;5091178;28;20503;-63
2022/11/20 09:55:02;;;;;;;33.70;19.73;;;-1.20;99.90;;;;;;5111111;28;20020;-58
2022/11/20 09:57:51;;;;;;;33.67;19.15;;;-1.30;99.90;;;;;;5097286;28;20077;-57
2022/11/20 10:00:38;;;;;;;30.15;17.60;;;-1.40;99.90;;;;;;5111648;28;20118;-62
2022/11/20 10:03:41;;;;;;;32.22;18.45;;;-1.20;99.90;;;;;;5096986;28;20175;-61
2022/11/20 10:06:42;;;;;;;32.50;18.73;;;-1.20;99.90;;;;;;5112008;28;20488;-55
2022/11/20 10:09:34;;;;;;;34.33;19.33;;;-1.10;99.90;;;;;;5112462;28;20599;-60
2022/11/20 10:12:34;;;;;;;33.10;17.67;;;-1.20;99.90;;;;;;5111886;28;20055;-59
2022/11/20 10:15:26;;;;;;;29.92;17.02;;;-1.10;99.90;;;;;;5098499;28;20081;-58
2022/11/20 10:18:46;;;;;;;33.58;17.90;;;-1.00;99.90;;;;;;5098012;28;20027;-58
2022/11/20 10:21:41;;;;;;;29.70;16.15;;;-0.90;99.90;;;;;;5071006;28;20532;-61
2022/11/20 10:24:49;;;;;;;32.55;18.30;;;-1.00;99.90;;;;;;5070684;28;20052;-58
2022/11/20 10:28:08;;;;;;;27.48;15.82;;;-0.90;99.90;;;;;;5056896;28;20056;-61
2022/11/20 10:31:03;;;;;;;30.13;16.70;;;-0.80;99.90;;;;;;5079388;28;20032;-59
2022/11/20 10:33:53;;;;;;;31.17;16.83;;;-0.80;99.90;;;;;;5091692;28;20055;-56
2022/11/20 10:36:46;;;;;;;28.80;17.33;;;-0.70;99.90;;;;;;5077449;28;20028;-59
2022/11/20 10:39:48;;;;;;;29.55;16.95;;;-0.80;99.90;;;;;;5092176;28;20028;-56
2022/11/20 10:42:43;;;;;;;28.30;17.05;;;-0.60;99.90;;;;;;5091425;28;20020;-60
2022/11/20 10:45:37;;;;;;;;;;;-0.50;99.90;;;;;;5076581;28;20408;-57
2022/11/20 10:48:25;;;;;;;26.77;15.57;;;-0.50;99.90;;;;;;5092246;28;19908;-60
2022/11/20 10:51:29;;;;;;;29.98;17.58;;;-0.50;99.90;;;;;;5101004;28;20419;-61
2022/11/20 10:54:47;;;;;;;30.95;17.08;;;-0.40;99.90;;;;;;5079433;28;20036;-61
2022/11/20 10:57:54;;;;;;;33.05;16.65;;;-0.30;99.90;;;;;;5090248;28;20035;-61
2022/11/20 11:00:40;;;;;;;27.90;16.63;;;-0.30;99.90;;;;;;5078022;28;20024;-61
2022/11/20 11:03:28;;;;;;;29.88;17.40;;;-0.30;99.90;;;;;;5092338;28;20442;-62
2022/11/20 11:06:48;;;;;;;32.15;17.77;;;-0.40;99.90;;;;;;5078212;28;20031;-58
2022/11/20 11:09:44;;;;;;;31.15;16.20;;;-0.40;99.90;;;;;;5071464;28;20032;-61
2022/11/20 11:12:33;;;;;;;28.15;16.92;;;-0.50;99.90;;;;;;5096655;28;20051;-60
2022/11/20 11:15:29;;;;;;;33.10;17.20;;;-0.50;99.90;;;;;;5091754;28;20062;-58
2022/11/20 11:18:33;;;;;;;30.45;17.02;;;-0.60;99.90;;;;;;5090641;28;20047;-60
2022/11/20 11:21:24;;;;;;;29.02;16.58;;;-0.50;99.90;;;;;;5090597;28;20138;-54
2022/11/20 11:24:31;;;;;;;31.83;18.10;;;-0.40;99.90;;;;;;5091592;28;20024;-59
2022/11/20 11:31:06;;;;;;;32.42;17.75;;;-0.40;99.90;;;;;;5085912;28;20090;-60
2022/11/20 11:33:52;;;;;;;29.95;18.08;;;-0.50;99.90;;;;;;5088817;28;20435;-60
2022/11/20 11:36:49;;;;;;;26.80;16.17;;;-0.40;99.90;;;;;;5090620;28;20115;-61
2022/11/20 11:39:42;;;;;;;31.05;17.20;;;-0.40;99.90;;;;;;5093012;28;20407;-59
2022/11/20 11:42:28;;;;;;;29.02;18.08;;;-0.30;99.90;;;;;;5089096;28;20496;-59
2022/11/20 11:45:17;;;;;;;28.63;16.85;;;-0.20;99.90;;;;;;5089452;28;20028;-61
2022/11/20 11:48:04;;;;;;;28.48;17.20;;;-0.20;99.90;;;;;;5062509;28;20111;-61
2022/11/20 11:50:51;;;;;;;28.33;16.23;;;-0.10;99.90;;;;;;5088221;28;20028;-59
2022/11/20 11:53:41;;;;;;;28.15;16.67;;;-0.10;99.90;;;;;;5090385;28;20117;-61
2022/11/20 11:56:28;;;;;;;27.48;16.42;;;0.10;99.90;;;;;;5074570;28;20028;-59
2022/11/20 11:59:27;;;;;;;28.60;17.02;;;0.20;99.90;;;;;;5070485;28;20037;-60
2022/11/20 12:02:29;;;;;;;24.67;14.57;;;0.10;99.90;;;;;;5074702;28;20111;-61
2022/11/20 12:05:27;;;;;;;26.70;16.20;;;0.20;99.90;;;;;;5090972;28;20035;-61
2022/11/20 12:08:32;;;;;;;27.60;15.75;;;0.40;99.90;;;;;;5074597;28;20056;-62
2022/11/20 12:11:46;;;;;;;27.42;15.40;;;0.40;99.90;;;;;;5074031;28;20043;-63
2022/11/20 12:14:34;;;;;;;23.90;15.40;;;0.30;99.90;;;;;;5074936;28;20024;-62
2022/11/20 12:17:20;;;;;;;24.08;15.10;;;0.30;99.90;;;;;;5073939;28;20503;-63
2022/11/20 12:20:13;;;;;;;25.00;14.70;;;0.40;99.90;;;;;;5088356;28;20500;-60
2022/11/20 12:23:21;;;;;;;24.75;15.63;;;0.40;99.90;;;;;;5091943;28;20125;-63
2022/11/20 12:26:22;;;;;;;26.00;16.00;;;0.60;99.90;;;;;;5079643;28;20024;-62
2022/11/20 12:29:41;;;;;;;24.25;15.02;;;0.50;99.90;;;;;;5092597;28;20032;-61
2022/11/20 12:32:56;;;;;;;21.70;14.23;;;0.70;99.90;;;;;;5057283;28;20085;-62
2022/11/20 12:35:49;;;;;;;22.38;14.05;;;0.90;99.90;;;;;;5071806;28;20064;-60
2022/11/20 12:38:38;;;;;;;24.08;14.25;;;1.10;99.90;;;;;;5099406;28;20429;-60
2022/11/20 12:45:11;;;;;;;22.00;14.30;;;1.30;99.90;;;;;;5073290;28;20032;-60
2022/11/20 12:48:31;;;;;;;19.90;13.07;;;1.30;99.90;;;;;;5081760;28;20056;-63
2022/11/20 12:51:47;;;;;;;20.25;13.55;;;1.30;99.90;;;;;;5092699;28;20112;-61
2022/11/20 12:55:08;;;;;;;22.08;14.15;;;1.50;99.90;;;;;;5083388;28;20527;-63
2022/11/20 12:58:20;;;;;;;25.73;15.00;;;1.70;99.90;;;;;;5077482;28;20033;-63
2022/11/20 13:01:42;;;;;;;22.52;14.73;;;1.80;99.90;;;;;;5067786;28;20035;-61
2022/11/20 13:04:48;;;;;;;20.13;14.05;;;1.90;99.90;;;;;;5067927;28;20376;-62
2022/11/20 13:07:36;;;;;;;20.02;13.52;;;1.70;99.90;;;;;;5077230;28;20069;-62
2022/11/20 13:10:31;;;;;;;23.10;14.13;;;1.70;99.90;;;;;;5074107;28;20092;-61
2022/11/20 13:13:31;;;;;;;21.77;14.27;;;1.60;99.90;;;;;;5066413;28;20475;-62
2022/11/20 13:16:37;;;;;;;19.27;13.52;;;1.40;99.90;;;;;;5081535;28;20032;-60
2022/11/20 13:19:24;;;;;;;21.20;13.38;;;1.50;99.90;;;;;;5081055;28;20055;-59
2022/11/20 13:22:10;;;;;;;23.40;14.43;;;1.80;99.90;;;;;;5082779;28;20024;-60
2022/11/20 13:24:56;;;;;;;22.95;14.10;;;1.90;99.90;;;;;;5058100;28;20044;-62
2022/11/20 13:27:48;;;;;;;19.63;13.55;;;1.90;99.90;;;;;;5086251;28;20016;-61
2022/11/20 13:30:36;;;;;;;21.95;14.02;;;1.90;99.90;;;;;;5081451;28;20065;-63
2022/11/20 13:33:22;;;;;;;21.45;13.90;;;1.90;99.90;;;;;;5086797;28;20028;-63
2022/11/20 13:36:27;;;;;;;19.90;13.85;;;2.10;99.90;;;;;;5074688;28;20028;-62
2022/11/20 13:39:27;;;;;;;22.27;13.38;;;2.50;99.50;;;;;;5075234;28;20032;-63
2022/11/20 13:42:14;;;;;;;20.60;13.70;;;2.30;99.70;;;;;;5076773;28;20020;-62
2022/11/20 13:45:10;;;;;;;21.35;14.25;;;2.50;99.90;;;;;;5089963;28;20683;-62
2022/11/20 13:47:58;;;;;;;17.40;12.40;;;2.80;98.90;;;;;;5088494;28;20415;-58
2022/11/20 13:50:55;;;;;;;20.23;12.90;;;2.70;98.00;;;;;;5088259;28;20036;-59
2022/11/20 13:53:58;;;;;;;18.70;12.63;;;3.40;97.70;;;;;;5084076;28;20024;-60
2022/11/20 13:57:07;;;;;;;18.08;12.40;;;4.00;96.40;;;;;;5092471;28;20074;-55
2022/11/20 14:00:16;;;;;;;18.40;13.43;;;4.70;95.10;;;;;;5092686;28;20084;-60
2022/11/20 14:03:05;;;;;;;15.70;11.27;;;5.50;94.30;;;;;;5094876;28;20109;-61
2022/11/20 14:06:04;;;;;;;17.20;13.77;;;6.50;93.20;;;;;;5091961;28;20020;-59
2022/11/20 14:08:50;;;;;;;18.25;13.70;;;7.00;91.90;;;;;;5091607;28;20031;-60
2022/11/20 14:11:45;;;;;;;18.45;13.70;;;7.10;91.60;;;;;;5077099;28;20392;-60
2022/11/20 14:14:33;;;;;;;19.17;13.97;;;7.40;90.40;;;;;;5091274;28;20111;-60
2022/11/20 14:17:31;;;;;;;19.20;14.27;;;7.30;90.20;;;;;;5084128;28;20275;-62
2022/11/20 14:20:22;;;;;;;21.55;13.95;;;7.00;90.40;;;;;;5070506;28;20119;-62
2022/11/20 14:23:10;;;;;;;16.83;13.75;;;6.90;90.70;;;;;;5063793;28;20146;-60
2022/11/20 14:25:57;;;;;;;18.08;14.70;;;6.60;90.20;;;;;;5087748;28;20044;-59
2022/11/20 14:28:47;;;;;;;18.02;13.63;;;5.80;91.20;;;;;;5088406;28;20453;-61
2022/11/20 14:31:33;;;;;;;20.55;14.15;;;4.70;93.30;;;;;;5089378;28;20111;-61
2022/11/20 14:34:27;;;;;;;18.00;13.00;;;3.60;95.30;;;;;;5084944;28;20040;-64
2022/11/20 14:37:19;;;;;;;19.77;13.70;;;3.10;97.10;;;;;;5053255;28;20032;-60
2022/11/20 14:40:22;;;;;;;23.55;14.30;;;2.70;98.00;;;;;;5088655;28;20441;-60
2022/11/20 14:43:28;;;;;;;20.05;13.65;;;2.20;99.60;;;;;;5091603;28;20114;-62